Time;durP1;ratioP1;P1;durP2;ratioP2;P2;SDS_P1;SDS_P2;PMS_P1;PMS_P2;Temp;Humidity;BMP_temperature;BMP_pressure;BME280_temperature;BME280_humidity;BME280_pressure;Samples;Min_cycle;Max_cycle;Signal;HPM_P1;HPM_P2
2021/06/29 00:02:16;;;;;;;10.50;5.33;;;;;;;19.05;65.57;100724.22;5069566;28;20237;-71
2021/06/29 00:04:41;;;;;;;7.93;5.00;;;;;;;19.17;64.82;100716.00;5069474;28;20290;-71
2021/06/29 00:07:07;;;;;;;5.73;5.13;;;;;;;19.32;63.39;100714.59;5069644;28;20179;-71
2021/06/29 00:09:32;;;;;;;6.60;5.57;;;;;;;19.33;62.97;100719.03;5069162;28;20270;-71
2021/06/29 00:11:59;;;;;;;7.83;5.20;;;;;;;19.38;62.73;100718.59;5069256;28;20247;-71
2021/06/29 00:14:24;;;;;;;9.83;5.53;;;;;;;19.47;61.92;100710.50;5068925;28;20203;-71
2021/06/29 00:16:50;;;;;;;9.13;5.50;;;;;;;19.41;62.20;100708.34;5053692;28;20592;-71
2021/06/29 00:19:15;;;;;;;6.23;5.37;;;;;;;19.23;63.16;100704.59;5053443;28;20168;-71
2021/06/29 00:21:40;;;;;;;8.07;5.37;;;;;;;19.24;62.78;100699.06;5053535;28;20191;-71
2021/06/29 00:24:06;;;;;;;6.00;4.77;;;;;;;19.28;62.59;100696.91;5053349;28;20251;-71
2021/06/29 00:26:31;;;;;;;6.63;5.37;;;;;;;19.15;63.49;100690.94;5068882;28;20183;-71
2021/06/29 00:28:58;;;;;;;7.97;5.87;;;;;;;19.13;63.45;100690.22;5053408;28;20583;-71
2021/06/29 00:31:23;;;;;;;6.20;5.40;;;;;;;19.07;64.36;100686.22;5053379;28;20204;-71
2021/06/29 00:33:50;;;;;;;7.53;5.50;;;;;;;18.95;64.90;100682.75;5051987;28;20172;-71
2021/06/29 00:36:16;;;;;;;7.43;5.00;;;;;;;18.90;65.11;100668.81;5069280;28;20198;-71
2021/06/29 00:38:41;;;;;;;6.63;4.77;;;;;;;18.88;65.44;100678.91;5053768;28;20695;-71
2021/06/29 00:41:06;;;;;;;10.57;5.13;;;;;;;18.90;65.37;100671.50;5053128;28;20261;-70
2021/06/29 00:43:32;;;;;;;11.10;4.77;;;;;;;19.02;64.71;100674.97;5053126;28;20185;-71
2021/06/29 00:45:57;;;;;;;6.50;4.83;;;;;;;18.94;65.40;100666.66;5053167;28;20793;-71
2021/06/29 00:48:22;;;;;;;9.07;4.93;;;;;;;18.98;65.48;100676.25;5053173;28;20186;-71
2021/06/29 00:50:48;;;;;;;5.57;4.37;;;;;;;19.00;64.80;100671.56;5053052;28;20176;-70
2021/06/29 00:53:14;;;;;;;5.80;4.57;;;;;;;19.09;65.06;100677.97;5053000;28;20163;-70
2021/06/29 00:55:40;;;;;;;6.60;4.37;;;;;;;19.06;65.28;100671.00;5051590;28;20532;-71
2021/06/29 00:58:08;;;;;;;7.17;5.17;;;;;;;18.96;65.53;100668.28;5053064;28;20229;-71
2021/06/29 01:00:33;;;;;;;4.90;4.37;;;;;;;18.91;65.90;100666.94;5052854;28;20213;-71
2021/06/29 01:02:58;;;;;;;5.47;4.73;;;;;;;19.03;64.25;100666.72;5068616;28;20172;-71
2021/06/29 01:05:24;;;;;;;5.73;4.20;;;;;;;19.13;63.65;100660.47;5052729;28;20253;-70
2021/06/29 01:07:49;;;;;;;6.23;4.50;;;;;;;19.14;63.27;100656.75;5053116;28;20171;-71
2021/06/29 01:10:15;;;;;;;5.97;4.40;;;;;;;19.03;64.08;100655.03;5051623;28;20175;-71
2021/06/29 01:12:40;;;;;;;6.00;4.97;;;;;;;19.00;64.01;100653.47;5072414;28;20675;-70
2021/06/29 01:15:06;;;;;;;6.87;4.60;;;;;;;19.02;64.01;100650.63;5072098;28;20218;-71
2021/06/29 01:17:31;;;;;;;7.30;4.47;;;;;;;18.96;63.90;100649.34;5055868;28;20183;-70
2021/06/29 01:19:57;;;;;;;7.03;4.73;;;;;;;18.86;65.00;100653.84;5055544;28;20178;-70
2021/06/29 01:22:24;;;;;;;4.90;4.40;;;;;;;18.68;65.12;100650.13;5056835;28;20195;-70
2021/06/29 01:24:52;;;;;;;5.80;4.80;;;;;;;18.62;65.40;100646.13;5057451;28;20225;-70
2021/06/29 01:27:38;;;;;;;6.10;4.97;;;;;;;18.57;65.71;100640.19;5057633;28;20214;-70
2021/06/29 01:32:30;;;;;;;6.13;5.00;;;;;;;18.52;65.75;100644.31;5065670;28;20178;-70
2021/06/29 01:34:55;;;;;;;5.63;4.30;;;;;;;18.51;65.65;100639.91;5072216;28;20266;-71
2021/06/29 01:37:21;;;;;;;4.93;4.43;;;;;;;18.44;66.35;100637.75;5055419;28;20175;-70
2021/06/29 01:39:53;;;;;;;6.83;5.03;;;;;;;18.31;67.17;100633.59;5056741;28;20179;-70
2021/06/29 01:42:19;;;;;;;4.73;4.30;;;;;;;18.23;67.35;100633.41;5056469;28;20196;-71
2021/06/29 01:44:44;;;;;;;6.23;4.43;;;;;;;18.26;67.37;100631.28;5056533;28;20253;-72
2021/06/29 01:47:12;;;;;;;5.60;5.00;;;;;;;18.20;67.82;100633.66;5055186;28;20190;-71
2021/06/29 01:49:37;;;;;;;5.33;4.83;;;;;;;18.05;68.63;100625.91;5055134;28;20180;-71
2021/06/29 01:52:03;;;;;;;7.37;4.93;;;;;;;18.04;68.32;100613.41;5071634;28;20172;-70
2021/06/29 01:54:28;;;;;;;5.13;4.53;;;;;;;18.07;68.48;100617.69;5056000;28;20207;-71
2021/06/29 01:56:53;;;;;;;5.00;4.50;;;;;;;18.03;68.60;100616.25;5056077;28;20544;-71
2021/06/29 01:59:21;;;;;;;4.73;4.20;;;;;;;17.97;69.15;100625.72;5072132;28;20174;-71
2021/06/29 02:01:46;;;;;;;5.03;4.17;;;;;;;17.95;69.37;100624.16;5055952;28;20219;-71
2021/06/29 02:04:12;;;;;;;6.40;4.80;;;;;;;17.97;69.07;100623.03;5055887;28;20708;-70
2021/06/29 02:06:41;;;;;;;5.50;4.60;;;;;;;18.03;69.35;100629.75;5056520;28;20175;-70
2021/06/29 02:09:08;;;;;;;8.63;5.03;;;;;;;17.96;69.55;100624.03;5055170;28;20183;-71
2021/06/29 02:11:36;;;;;;;7.27;5.10;;;;;;;17.84;70.62;100625.09;5056829;28;20229;-71
2021/06/29 02:14:01;;;;;;;5.97;5.20;;;;;;;17.84;70.60;100629.59;5055820;28;20195;-71
2021/06/29 02:16:26;;;;;;;6.83;4.83;;;;;;;17.78;71.06;100620.19;5055933;28;20238;-71
2021/06/29 02:18:52;;;;;;;9.83;5.00;;;;;;;17.81;71.21;100615.38;5056216;28;20179;-70
2021/06/29 02:21:17;;;;;;;7.87;5.13;;;;;;;17.95;70.82;100608.81;5055685;28;20202;-70
2021/06/29 02:23:42;;;;;;;6.07;4.97;;;;;;;17.98;70.72;100611.25;5069871;28;20232;-71
2021/06/29 02:26:07;;;;;;;6.33;5.10;;;;;;;18.16;70.13;100605.19;5055790;28;20226;-70
2021/06/29 02:28:33;;;;;;;7.03;5.23;;;;;;;17.97;70.78;100608.69;5071291;28;20528;-71
2021/06/29 02:30:58;;;;;;;6.23;5.37;;;;;;;17.90;71.23;100607.50;5071074;28;20163;-71
2021/06/29 02:33:23;;;;;;;7.43;5.37;;;;;;;17.80;71.95;100600.19;5054134;28;20181;-71
2021/06/29 02:35:49;;;;;;;8.37;5.50;;;;;;;17.77;71.54;100595.06;5055992;28;20198;-71
2021/06/29 02:38:14;;;;;;;7.17;5.30;;;;;;;17.68;72.27;100589.59;5071163;28;20639;-71
2021/06/29 02:40:39;;;;;;;10.73;5.10;;;;;;;17.72;72.05;100583.81;5070726;28;20221;-71
2021/06/29 02:43:05;;;;;;;10.00;5.63;;;;;;;17.77;71.29;100584.25;5055552;28;20255;-71
2021/06/29 02:45:30;;;;;;;8.53;5.20;;;;;;;17.79;71.02;100578.72;5070641;28;20750;-71
2021/06/29 02:47:57;;;;;;;6.70;5.53;;;;;;;17.78;71.05;100569.78;5070762;28;20651;-71
2021/06/29 02:50:23;;;;;;;6.40;5.03;;;;;;;17.78;70.83;100575.16;5055360;28;20179;-70
2021/06/29 02:52:48;;;;;;;7.33;5.20;;;;;;;17.81;71.02;100584.84;5070487;28;20160;-71
2021/06/29 02:55:14;;;;;;;7.60;5.23;;;;;;;17.83;70.52;100590.09;5053665;28;20233;-71
2021/06/29 02:57:41;;;;;;;7.60;5.30;;;;;;;17.93;70.69;100599.13;5037249;28;20176;-71
2021/06/29 03:00:08;;;;;;;8.70;5.33;;;;;;;17.97;69.86;100584.38;5054921;28;20172;-71
2021/06/29 03:02:33;;;;;;;6.87;5.27;;;;;;;17.94;69.69;100584.66;5054778;28;20616;-70
2021/06/29 03:04:59;;;;;;;7.40;5.73;;;;;;;17.88;70.00;100577.09;5054958;28;20218;-71
2021/06/29 03:07:24;;;;;;;9.73;4.90;;;;;;;18.01;69.50;100575.88;5055130;28;20847;-71
2021/06/29 03:09:49;;;;;;;6.50;5.30;;;;;;;18.01;69.49;100581.25;5054968;28;20171;-71
2021/06/29 03:12:14;;;;;;;11.83;5.57;;;;;;;17.94;69.80;100590.03;5070505;28;20183;-71
2021/06/29 03:14:41;;;;;;;6.10;5.50;;;;;;;17.97;70.09;100589.78;5070558;28;20235;-71
2021/06/29 03:17:06;;;;;;;5.53;4.90;;;;;;;18.20;68.53;100588.59;5055395;28;20172;-71
2021/06/29 03:19:33;;;;;;;4.90;4.40;;;;;;;18.21;68.47;100594.84;5054871;28;20171;-72
2021/06/29 03:21:59;;;;;;;6.43;5.00;;;;;;;18.19;68.69;100599.53;5070581;28;20191;-71
2021/06/29 03:24:25;;;;;;;6.33;4.80;;;;;;;18.17;68.59;100605.06;5070160;28;20195;-71
2021/06/29 03:26:50;;;;;;;5.40;4.90;;;;;;;18.19;69.02;100603.09;5054579;28;20648;-71
2021/06/29 03:29:16;;;;;;;5.97;5.20;;;;;;;18.24;68.70;100602.69;5054994;28;20179;-71
2021/06/29 03:31:41;;;;;;;5.43;4.90;;;;;;;18.14;69.28;100594.53;5054765;28;20164;-71
2021/06/29 03:34:06;;;;;;;7.80;5.30;;;;;;;18.18;69.01;100595.13;5052981;28;20206;-70
2021/06/29 03:36:32;;;;;;;6.63;4.50;;;;;;;18.25;68.65;100602.56;5053395;28;20167;-70
2021/06/29 03:38:57;;;;;;;8.60;5.17;;;;;;;18.24;68.61;100598.16;5069869;28;20203;-71
2021/06/29 03:41:24;;;;;;;9.37;5.73;;;;;;;18.27;68.42;100597.88;5054020;28;20198;-71
2021/06/29 03:43:49;;;;;;;5.37;4.77;;;;;;;18.32;68.10;100594.78;5054292;28;20259;-71
2021/06/29 03:46:14;;;;;;;10.13;5.23;;;;;;;18.31;68.36;100596.63;5054297;28;20179;-71
2021/06/29 03:48:40;;;;;;;6.07;5.17;;;;;;;18.35;69.39;100606.16;5054824;28;20183;-71
2021/06/29 03:51:05;;;;;;;5.73;4.73;;;;;;;18.30;68.91;100597.59;5054612;28;20182;-70
2021/06/29 03:53:30;;;;;;;5.77;4.83;;;;;;;18.38;67.85;100599.63;5052603;28;20175;-70
2021/06/29 03:55:56;;;;;;;7.43;4.80;;;;;;;18.52;67.42;100592.97;5053800;28;20234;-70
2021/06/29 03:58:21;;;;;;;11.80;5.23;;;;;;;18.55;66.95;100587.28;5053872;28;20258;-70
2021/06/29 04:00:46;;;;;;;6.33;4.70;;;;;;;18.34;67.67;100585.53;5052492;28;20172;-70
2021/06/29 04:03:11;;;;;;;6.77;5.10;;;;;;;18.20;68.61;100580.47;5052943;28;20513;-70
2021/06/29 04:05:37;;;;;;;9.70;5.40;;;;;;;18.21;68.74;100586.75;5053618;28;20191;-70
2021/06/29 04:08:03;;;;;;;5.53;4.80;;;;;;;18.26;69.31;100582.66;5053693;28;20176;-70
2021/06/29 04:10:29;;;;;;;5.93;5.27;;;;;;;18.09;69.73;100580.59;5069269;28;20218;-70
2021/06/29 04:12:54;;;;;;;5.63;5.13;;;;;;;18.13;69.72;100580.19;5069131;28;20191;-70
2021/06/29 04:15:19;;;;;;;11.03;5.57;;;;;;;18.31;69.43;100577.69;5098793;22;20282;-73
2021/06/29 04:17:44;;;;;;;14.23;5.37;;;;;;;18.44;68.51;100575.59;5094883;28;20185;-74
2021/06/29 04:20:10;;;;;;;12.47;5.63;;;;;;;18.53;68.75;100576.63;5076181;28;20166;-73
2021/06/29 04:22:36;;;;;;;18.57;5.63;;;;;;;18.48;68.73;100575.31;5093561;28;20575;-73
2021/06/29 04:25:06;;;;;;;13.67;6.07;;;;;;;18.59;68.59;100576.09;5093613;28;20551;-73
2021/06/29 04:27:31;;;;;;;9.70;4.57;;;;;;;18.71;67.97;100571.44;5075419;28;20550;-73
2021/06/29 04:29:57;;;;;;;9.97;4.70;;;;;;;18.65;68.37;100574.72;5076247;28;20171;-74
2021/06/29 04:32:22;;;;;;;6.87;4.67;;;;;;;18.54;69.55;100572.06;5093949;28;20185;-74
2021/06/29 04:34:47;;;;;;;8.07;5.37;;;;;;;18.43;70.42;100576.59;5075809;28;20368;-74
2021/06/29 04:37:13;;;;;;;5.67;5.10;;;;;;;18.44;70.53;100578.31;5075339;28;20178;-74
2021/06/29 04:39:38;;;;;;;7.30;5.03;;;;;;;18.33;70.23;100575.72;5093343;28;20170;-74
2021/06/29 04:42:04;;;;;;;5.47;4.90;;;;;;;18.49;69.66;100575.19;5075281;28;20194;-74
2021/06/29 04:44:30;;;;;;;7.00;5.50;;;;;;;18.53;69.53;100581.16;5058411;28;20198;-74
2021/06/29 04:46:56;;;;;;;9.77;5.17;;;;;;;18.55;69.37;100576.47;5057368;28;20178;-68
2021/06/29 04:49:25;;;;;;;6.73;5.43;;;;;;;18.57;69.17;100574.50;5093309;28;20182;-68
2021/06/29 04:51:51;;;;;;;6.10;4.53;;;;;;;18.71;68.85;100568.75;5093207;28;20286;-67
2021/06/29 04:54:16;;;;;;;10.10;5.60;;;;;;;18.80;69.02;100564.34;5092940;28;20675;-68
2021/06/29 04:56:41;;;;;;;6.70;5.03;;;;;;;18.82;68.10;100560.50;5092949;28;20591;-67
2021/06/29 04:59:06;;;;;;;12.00;4.60;;;;;;;19.04;67.37;100557.53;5093354;28;20178;-68
2021/06/29 05:01:32;;;;;;;8.83;5.60;;;;;;;18.96;67.92;100556.53;5092884;28;20186;-67
2021/06/29 05:03:57;;;;;;;8.83;5.33;;;;;;;19.04;68.07;100552.13;5093075;28;20173;-68
2021/06/29 05:06:22;;;;;;;9.77;4.90;;;;;;;19.01;67.64;100546.16;5092836;28;20186;-67
2021/06/29 05:08:48;;;;;;;10.33;5.47;;;;;;;19.24;67.13;100544.84;5058054;28;20183;-68
2021/06/29 05:11:13;;;;;;;8.73;5.30;;;;;;;19.13;67.69;100546.84;5092779;28;20699;-68
2021/06/29 05:13:39;;;;;;;10.87;5.07;;;;;;;19.11;67.99;100538.03;5092676;28;20257;-68
2021/06/29 05:16:04;;;;;;;13.07;5.27;;;;;;;19.12;68.07;100546.00;5092604;28;20289;-68
2021/06/29 05:18:30;;;;;;;13.00;5.40;;;;;;;19.17;68.35;100550.97;5092860;28;20542;-68
2021/06/29 05:20:55;;;;;;;8.77;5.67;;;;;;;19.23;68.33;100548.53;5075327;28;20614;-68
2021/06/29 05:23:21;;;;;;;8.17;4.80;;;;;;;19.38;68.05;100551.69;5093256;28;20169;-68
2021/06/29 05:25:46;;;;;;;16.93;5.43;;;;;;;19.44;67.68;100548.38;5093015;28;20615;-68
2021/06/29 05:28:12;;;;;;;9.83;5.20;;;;;;;19.60;66.96;100558.63;5057913;28;20174;-67
2021/06/29 05:30:37;;;;;;;15.27;5.50;;;;;;;19.78;66.58;100558.75;5092939;28;20181;-68
2021/06/29 05:33:03;;;;;;;10.03;5.20;;;;;;;19.88;66.28;100562.28;5092725;28;20170;-68
2021/06/29 05:35:28;;;;;;;8.40;4.97;;;;;;;19.87;66.43;100566.00;5074773;28;20206;-68
2021/06/29 05:37:53;;;;;;;11.37;5.40;;;;;;;19.94;66.31;100567.09;5092849;28;20170;-68
2021/06/29 05:40:19;;;;;;;6.13;5.53;;;;;;;20.02;66.26;100572.63;5074695;28;20175;-76
2021/06/29 05:42:44;;;;;;;7.70;5.30;;;;;;;20.10;65.53;100566.50;5074604;28;20211;-75
2021/06/29 05:45:12;;;;;;;5.60;4.70;;;;;;;20.46;64.35;100565.63;5074680;28;20562;-76
2021/06/29 05:47:38;;;;;;;16.90;5.93;;;;;;;20.51;64.17;100570.59;5075321;28;20186;-76
2021/06/29 05:50:05;;;;;;;13.40;5.33;;;;;;;20.57;63.66;100570.00;5074756;28;20178;-75
2021/06/29 05:52:30;;;;;;;6.80;5.50;;;;;;;20.57;63.50;100570.00;5074712;28;20167;-76
2021/06/29 05:54:56;;;;;;;6.57;5.90;;;;;;;20.59;63.39;100576.97;5092738;28;20194;-76
2021/06/29 05:57:21;;;;;;;12.50;5.33;;;;;;;20.58;63.33;100569.84;5076369;28;20166;-76
2021/06/29 05:59:46;;;;;;;7.90;5.20;;;;;;;20.96;61.96;100573.28;5096489;28;20197;-76
2021/06/29 06:02:12;;;;;;;15.87;5.90;;;;;;;20.79;62.23;100582.25;5061468;28;20190;-75
2021/06/29 06:04:37;;;;;;;7.97;5.33;;;;;;;20.92;61.78;100580.88;5096155;28;20189;-75
2021/06/29 06:07:04;;;;;;;7.60;5.17;;;;;;;20.99;61.66;100575.69;5078584;28;20174;-75
2021/06/29 06:09:29;;;;;;;9.57;5.93;;;;;;;20.88;62.21;100576.78;5078387;28;20642;-74
2021/06/29 06:11:55;;;;;;;6.83;5.73;;;;;;;20.83;62.98;100579.09;5078500;28;20173;-75
2021/06/29 06:14:20;;;;;;;12.70;5.37;;;;;;;20.84;62.95;100569.97;5096079;28;20573;-76
2021/06/29 06:16:45;;;;;;;10.50;5.90;;;;;;;20.65;63.99;100563.81;5061685;28;20166;-75
2021/06/29 06:19:10;;;;;;;9.27;5.57;;;;;;;20.89;63.00;100562.22;5096714;28;20177;-75
2021/06/29 06:21:36;;;;;;;6.00;5.40;;;;;;;20.81;63.36;100567.56;5097119;28;20285;-76
2021/06/29 06:24:01;;;;;;;7.63;5.10;;;;;;;20.88;63.00;100559.66;5078773;28;20171;-76
2021/06/29 06:26:26;;;;;;;9.53;5.40;;;;;;;20.71;63.76;100563.19;5061312;28;20698;-75
2021/06/29 06:28:52;;;;;;;7.27;5.33;;;;;;;20.78;63.35;100565.13;5078023;28;20178;-74
2021/06/29 06:31:17;;;;;;;8.47;5.17;;;;;;;20.87;63.18;100575.06;5078086;28;20162;-75
2021/06/29 06:33:42;;;;;;;6.83;5.23;;;;;;;20.87;63.94;100606.78;5061082;28;20174;-75
2021/06/29 06:36:08;;;;;;;11.70;5.80;;;;;;;21.07;63.31;100599.34;5095993;28;20209;-75
2021/06/29 06:38:34;;;;;;;6.67;5.00;;;;;;;21.34;62.50;100588.44;5077942;28;20227;-76
2021/06/29 06:40:59;;;;;;;6.43;5.83;;;;;;;21.51;62.50;100606.56;5060783;28;20174;-75
2021/06/29 06:43:24;;;;;;;7.93;4.90;;;;;;;21.69;61.92;100598.41;5060900;28;20174;-75
2021/06/29 06:45:50;;;;;;;15.47;6.60;;;;;;;21.50;62.22;100607.56;5095772;28;20263;-76
2021/06/29 06:48:15;;;;;;;10.70;6.57;;;;;;;21.85;60.98;100597.66;5077727;28;20170;-75
2021/06/29 06:50:40;;;;;;;13.60;5.97;;;;;;;22.18;59.97;100611.47;5077807;28;20170;-75
2021/06/29 06:53:06;;;;;;;15.23;6.77;;;;;;;22.33;59.19;100588.13;5077894;28;20219;-75
2021/06/29 06:55:31;;;;;;;13.50;6.57;;;;;;;22.14;59.51;100600.94;5076917;28;20197;-75
2021/06/29 06:57:57;;;;;;;8.70;6.27;;;;;;;22.48;58.56;100597.38;5077061;28;20265;-75
2021/06/29 07:00:23;;;;;;;8.07;5.80;;;;;;;22.30;58.96;100585.72;5096243;28;20181;-75
2021/06/29 07:02:49;;;;;;;18.97;7.47;;;;;;;22.02;59.77;100609.50;5077440;28;20708;-76
2021/06/29 07:05:14;;;;;;;11.33;5.20;;;;;;;22.50;58.02;100608.94;5078335;28;20269;-76
2021/06/29 07:07:39;;;;;;;7.87;5.47;;;;;;;22.74;57.43;100619.91;5091411;28;20154;-76
2021/06/29 07:10:06;;;;;;;11.60;6.50;;;;;;;22.78;57.37;100607.69;5079748;28;20296;-77
2021/06/29 07:12:31;;;;;;;13.67;5.83;;;;;;;21.90;60.42;100600.75;5091991;28;20162;-74
2021/06/29 07:14:57;;;;;;;10.43;6.37;;;;;;;22.19;59.64;100599.59;5098156;28;20221;-75
2021/06/29 07:17:23;;;;;;;6.37;5.47;;;;;;;22.24;59.99;100591.81;5077946;28;20166;-75
2021/06/29 07:19:48;;;;;;;7.07;5.37;;;;;;;22.38;58.89;100599.38;5060554;28;20178;-76
2021/06/29 07:22:13;;;;;;;8.27;5.90;;;;;;;22.24;60.15;100597.25;5076886;28;20566;-75
2021/06/29 07:24:39;;;;;;;8.70;5.60;;;;;;;22.61;58.01;100605.91;5095204;28;20670;-76
2021/06/29 07:27:05;;;;;;;7.03;6.00;;;;;;;22.65;58.00;100590.97;5077020;28;20189;-75
2021/06/29 07:29:30;;;;;;;9.40;5.73;;;;;;;22.38;59.37;100583.06;5060088;28;20174;-75
2021/06/29 07:31:56;;;;;;;11.07;5.77;;;;;;;22.27;61.02;100586.03;5094654;28;20530;-75
2021/06/29 07:34:21;;;;;;;11.47;5.80;;;;;;;22.33;60.58;100602.56;5076477;28;20285;-75
2021/06/29 07:36:46;;;;;;;11.50;5.80;;;;;;;22.27;59.83;100603.19;5076536;28;20179;-75
2021/06/29 07:39:12;;;;;;;11.90;6.50;;;;;;;22.65;57.97;100593.66;5076779;28;20170;-75
2021/06/29 07:41:37;;;;;;;10.37;5.47;;;;;;;22.74;58.42;100584.53;5094674;28;20221;-75
2021/06/29 07:44:02;;;;;;;7.03;5.30;;;;;;;23.06;57.90;100593.84;5076714;28;20178;-75
2021/06/29 07:46:28;;;;;;;14.53;5.80;;;;;;;23.15;57.24;100600.16;5076300;28;20279;-75
2021/06/29 07:48:54;;;;;;;7.23;5.57;;;;;;;22.87;58.43;100602.28;5076006;28;20181;-74
2021/06/29 07:51:19;;;;;;;9.70;5.40;;;;;;;23.11;58.13;100593.34;5075951;28;20170;-75
2021/06/29 07:53:44;;;;;;;14.03;5.40;;;;;;;23.59;56.45;100596.09;5093763;28;20291;-75
2021/06/29 07:56:14;;;;;;;6.97;5.60;;;;;;;23.40;56.23;100590.97;5076123;28;20699;-74
2021/06/29 07:58:40;;;;;;;13.87;5.67;;;;;;;23.29;57.32;100599.47;5076672;28;20179;-76
2021/06/29 08:01:05;;;;;;;9.33;5.17;;;;;;;23.55;57.33;100599.31;5093725;28;20166;-74
2021/06/29 08:03:31;;;;;;;6.47;5.33;;;;;;;23.85;55.83;100590.47;5094253;28;20177;-75
2021/06/29 08:05:56;;;;;;;16.43;5.50;;;;;;;24.08;54.96;100590.56;5093995;28;20576;-75
2021/06/29 08:08:22;;;;;;;7.90;5.13;;;;;;;23.90;55.39;100593.53;5075747;28;20211;-74
2021/06/29 08:10:49;;;;;;;5.83;5.20;;;;;;;23.97;55.05;100599.97;5093533;28;20171;-75
2021/06/29 08:13:14;;;;;;;8.90;5.57;;;;;;;23.30;56.95;100599.28;5094264;28;20166;-75
2021/06/29 08:15:39;;;;;;;10.10;5.60;;;;;;;24.33;53.91;100594.13;5075796;28;20202;-74
2021/06/29 08:18:04;;;;;;;5.83;4.97;;;;;;;24.60;53.10;100590.09;5058575;28;20200;-74
2021/06/29 08:20:30;;;;;;;7.33;4.93;;;;;;;24.27;53.95;100592.06;5058957;28;20213;-75
2021/06/29 08:22:55;;;;;;;7.20;5.57;;;;;;;23.93;54.84;100587.72;5093500;28;20197;-75
2021/06/29 08:25:21;;;;;;;9.00;5.57;;;;;;;24.16;53.55;100578.78;5075635;28;20197;-75
2021/06/29 08:27:47;;;;;;;8.20;5.60;;;;;;;24.25;53.99;100580.50;5093501;28;20166;-75
2021/06/29 08:30:13;;;;;;;7.13;4.90;;;;;;;24.14;54.49;100576.25;5075348;28;20315;-74
2021/06/29 08:32:38;;;;;;;6.23;5.13;;;;;;;24.24;53.59;100584.25;5093253;28;20182;-75
2021/06/29 08:35:08;;;;;;;5.43;4.53;;;;;;;24.53;52.88;100573.59;5075317;28;20190;-75
2021/06/29 08:37:34;;;;;;;10.07;5.50;;;;;;;24.93;51.99;100579.84;5075377;28;20685;-75
2021/06/29 08:40:00;;;;;;;9.57;4.80;;;;;;;25.35;51.46;100578.56;5093197;28;20202;-75
2021/06/29 08:42:25;;;;;;;6.70;5.23;;;;;;;25.61;50.81;100579.00;5075821;28;20190;-75
2021/06/29 08:44:50;;;;;;;8.07;5.13;;;;;;;25.97;49.04;100576.47;5093675;28;20669;-74
2021/06/29 08:47:16;;;;;;;6.90;5.17;;;;;;;26.11;48.33;100574.78;5093302;28;20219;-74
2021/06/29 08:49:41;;;;;;;10.37;5.97;;;;;;;26.11;48.92;100566.59;5093164;28;20202;-74
2021/06/29 08:52:08;;;;;;;11.43;5.93;;;;;;;26.20;47.43;100567.34;5093014;28;20165;-75
2021/06/29 08:54:34;;;;;;;8.93;6.03;;;;;;;25.67;49.77;100563.81;5075098;28;20217;-74
2021/06/29 08:56:59;;;;;;;5.83;5.23;;;;;;;26.13;49.13;100573.56;5075007;28;20205;-76
2021/06/29 08:59:25;;;;;;;9.63;5.90;;;;;;;25.68;50.33;100566.34;5075032;28;20181;-74
2021/06/29 09:01:51;;;;;;;10.27;5.83;;;;;;;26.06;48.99;100555.38;5092967;28;20723;-74
2021/06/29 09:04:43;;;;;;;7.03;5.17;;;;;;;26.55;47.13;100565.72;5093436;28;20194;-74
2021/06/29 09:07:35;;;;;;;7.10;6.13;;;;;;;26.50;47.07;100568.19;5077210;28;20146;-76
2021/06/29 09:10:04;;;;;;;7.80;5.70;;;;;;;26.45;46.82;100561.41;5079804;28;20208;-74
2021/06/29 09:12:48;;;;;;;6.27;5.67;;;;;;;26.08;47.99;100550.56;5100544;28;20174;-76
2021/06/29 09:15:30;;;;;;;8.57;6.00;;;;;;;26.46;46.98;100554.91;5100923;28;20198;-76
2021/06/29 09:18:09;;;;;;;6.53;5.77;;;;;;;26.56;48.14;100556.47;5082196;28;20177;-76
2021/06/29 09:20:40;;;;;;;11.93;6.90;;;;;;;25.61;48.85;100545.34;5102650;28;20154;-76
2021/06/29 09:23:15;;;;;;;7.07;6.37;;;;;;;25.62;48.90;100542.44;5098586;28;20746;-76
2021/06/29 09:25:43;;;;;;;15.50;6.77;;;;;;;26.04;48.43;100547.34;5082179;28;20238;-76
2021/06/29 09:28:10;;;;;;;6.77;6.10;;;;;;;26.29;47.88;100539.69;5085505;28;20249;-74
2021/06/29 09:30:42;;;;;;;7.73;5.50;;;;;;;27.22;45.59;100538.94;5068566;28;20542;-76
2021/06/29 09:33:17;;;;;;;9.13;5.53;;;;;;;27.89;44.64;100540.34;5104806;28;20216;-76
2021/06/29 09:35:50;;;;;;;8.00;5.90;;;;;;;27.37;45.34;100538.84;5088367;28;20218;-78
2021/06/29 09:38:22;;;;;;;14.43;6.90;;;;;;;27.60;45.38;100533.97;5068705;28;20185;-76
2021/06/29 09:40:56;;;;;;;12.00;6.27;;;;;;;27.64;44.19;100529.81;5068262;28;20159;-77
2021/06/29 09:43:23;;;;;;;8.10;6.30;;;;;;;27.32;46.37;100531.22;5105824;28;20182;-77
2021/06/29 09:45:51;;;;;;;10.13;6.10;;;;;;;27.89;44.34;100523.88;5105564;28;20190;-78
2021/06/29 09:48:27;;;;;;;10.10;5.67;;;;;;;27.95;44.40;100532.16;5086189;28;20166;-77
2021/06/29 09:50:54;;;;;;;7.40;5.10;;;;;;;28.16;43.64;100525.72;5109718;28;20154;-77
2021/06/29 09:53:42;;;;;;;10.37;6.07;;;;;;;27.45;45.13;100516.75;5111313;28;20174;-75
2021/06/29 09:59:25;;;;;;;5.63;5.07;;;;;;;29.11;41.33;100518.50;5057893;28;20181;-76
2021/06/29 10:02:04;;;;;;;5.43;4.93;;;;;;;28.50;43.43;100513.88;5104445;28;20183;-76
2021/06/29 10:04:31;;;;;;;7.23;5.27;;;;;;;28.62;43.15;100511.41;5105702;28;20197;-76
2021/06/29 10:07:20;;;;;;;5.60;5.10;;;;;;;28.55;42.91;100507.75;5104477;28;20193;-76
2021/06/29 10:10:15;;;;;;;9.37;5.60;;;;;;;28.59;42.82;100509.03;5082247;28;20163;-77
2021/06/29 10:12:40;;;;;;;6.50;5.87;;;;;;;29.32;40.53;100510.03;5103362;28;20607;-76
2021/06/29 10:15:06;;;;;;;6.70;5.20;;;;;;;29.62;39.32;100507.75;5120042;22;20240;-72
2021/06/29 10:17:33;;;;;;;7.97;5.05;;;;;;;29.59;39.29;100504.56;5116739;28;20188;-72
2021/06/29 10:20:23;;;;;;;5.95;4.78;;;;;;;29.48;39.19;100501.41;5098934;28;20632;-71
2021/06/29 10:22:50;;;;;;;5.30;4.78;;;;;;;30.10;38.86;100499.19;5101388;28;20280;-72
2021/06/29 10:25:16;;;;;;;9.95;5.78;;;;;;;29.54;39.80;100496.97;5098297;28;20186;-72
2021/06/29 10:27:41;;;;;;;7.78;5.18;;;;;;;29.84;39.78;100495.44;5098066;28;20541;-72
2021/06/29 10:30:07;;;;;;;6.13;5.20;;;;;;;29.81;40.56;100490.38;5098267;28;20260;-72
2021/06/29 10:32:32;;;;;;;6.97;5.07;;;;;;;30.78;38.18;100497.66;5098015;28;20650;-73
2021/06/29 10:34:58;;;;;;;5.82;5.25;;;;;;;31.42;36.78;100482.78;5098188;28;20557;-73
2021/06/29 10:37:24;;;;;;;6.10;5.22;;;;;;;30.89;38.27;100490.63;5097744;28;20648;-74
2021/06/29 10:39:49;;;;;;;7.30;5.05;;;;;;;29.83;38.80;100485.50;5116053;28;20185;-73
2021/06/29 10:42:18;;;;;;;6.80;5.28;;;;;;;29.79;38.66;100492.50;5097730;28;20734;-73
2021/06/29 10:44:46;;;;;;;5.50;5.00;;;;;;;29.02;40.56;100479.41;5115214;28;20173;-72
2021/06/29 10:47:27;;;;;;;7.05;5.15;;;;;;;29.09;39.93;100473.91;5098152;28;20630;-73
2021/06/29 10:49:54;;;;;;;6.80;4.75;;;;;;;29.18;39.53;100483.63;5097989;28;20622;-72
2021/06/29 10:52:22;;;;;;;8.50;4.63;;;;;;;29.92;38.69;100474.25;5116065;28;20200;-73
2021/06/29 10:54:50;;;;;;;7.00;5.00;;;;;;;29.25;40.24;100470.72;5115850;28;20190;-72
2021/06/29 10:57:17;;;;;;;5.78;4.75;;;;;;;29.92;39.64;100472.34;5097889;28;20709;-72
2021/06/29 10:59:50;;;;;;;8.93;5.13;;;;;;;29.79;39.25;100472.41;5097587;28;20169;-74
2021/06/29 11:02:32;;;;;;;7.18;5.03;;;;;;;29.83;39.26;100470.91;5115592;28;20276;-73
2021/06/29 11:04:59;;;;;;;7.40;5.07;;;;;;;30.19;38.89;100470.41;5080443;28;20190;-72
2021/06/29 11:07:34;;;;;;;6.55;5.32;;;;;;;31.18;36.65;100457.97;5097171;28;20715;-72
2021/06/29 11:10:28;;;;;;;7.40;4.85;;;;;;;33.01;33.93;100461.56;5097449;28;20181;-73
2021/06/29 11:12:56;;;;;;;6.60;5.07;;;;;;;31.64;34.08;100463.94;5103401;28;20185;-74
2021/06/29 11:15:42;;;;;;;5.95;5.35;;;;;;;31.93;33.78;100455.97;5098980;28;20499;-73
2021/06/29 11:18:08;;;;;;;6.90;5.10;;;;;;;32.72;32.99;100454.16;5115931;28;20260;-74
2021/06/29 11:20:43;;;;;;;6.00;4.20;;;;;;;35.54;29.89;100462.50;5080720;28;20272;-74
2021/06/29 11:23:15;;;;;;;5.35;4.25;;;;;;;37.25;26.78;100455.72;5102322;28;20256;-74
2021/06/29 11:25:55;;;;;;;5.00;4.47;;;;;;;39.19;24.15;100455.47;5097512;28;20643;-74
2021/06/29 11:28:34;;;;;;;5.45;4.13;;;;;;;39.40;24.13;100450.69;5097002;28;20173;-74
2021/06/29 11:31:04;;;;;;;5.93;4.43;;;;;;;38.46;24.79;100443.59;5097074;28;20640;-74